sensor_id;sensor_type;location;lat;lon;timestamp;P1;durP1;ratioP1;P2;durP2;ratioP2
78716;SDS011;68045;50.042;14.432;2023-06-10T00:00:49;13.88;;;9.68;;
78716;SDS011;68045;50.042;14.432;2023-06-10T00:05:11;18.77;;;10.63;;
78716;SDS011;68045;50.042;14.432;2023-06-10T00:09:12;15.32;;;9.98;;
78716;SDS011;68045;50.042;14.432;2023-06-10T00:13:14;17.23;;;9.68;;
78716;SDS011;68045;50.042;14.432;2023-06-10T00:17:15;16.35;;;10.32;;
78716;SDS011;68045;50.042;14.432;2023-06-10T00:21:16;13.77;;;10.13;;
78716;SDS011;68045;50.042;14.432;2023-06-10T00:25:18;19.20;;;11.20;;
78716;SDS011;68045;50.042;14.432;2023-06-10T00:29:19;16.63;;;11.10;;
78716;SDS011;68045;50.042;14.432;2023-06-10T00:33:20;17.45;;;10.27;;
78716;SDS011;68045;50.042;14.432;2023-06-10T00:37:21;17.42;;;10.88;;
78716;SDS011;68045;50.042;14.432;2023-06-10T00:45:24;15.50;;;9.50;;
78716;SDS011;68045;50.042;14.432;2023-06-10T00:49:25;17.13;;;10.30;;
78716;SDS011;68045;50.042;14.432;2023-06-10T00:53:26;16.25;;;9.93;;
78716;SDS011;68045;50.042;14.432;2023-06-10T00:57:28;16.75;;;10.13;;
78716;SDS011;68045;50.042;14.432;2023-06-10T01:01:31;16.27;;;9.60;;
78716;SDS011;68045;50.042;14.432;2023-06-10T01:05:35;17.25;;;9.95;;
78716;SDS011;68045;50.042;14.432;2023-06-10T01:10:24;15.05;;;10.43;;
78716;SDS011;68045;50.042;14.432;2023-06-10T01:14:23;16.55;;;10.30;;
78716;SDS011;68045;50.042;14.432;2023-06-10T01:18:32;14.68;;;9.57;;
78716;SDS011;68045;50.042;14.432;2023-06-10T01:22:33;17.08;;;9.40;;
78716;SDS011;68045;50.042;14.432;2023-06-10T01:26:36;14.10;;;9.32;;
78716;SDS011;68045;50.042;14.432;2023-06-10T01:35:14;15.10;;;9.93;;
78716;SDS011;68045;50.042;14.432;2023-06-10T01:43:17;13.23;;;8.75;;
78716;SDS011;68045;50.042;14.432;2023-06-10T01:47:20;13.55;;;8.77;;
78716;SDS011;68045;50.042;14.432;2023-06-10T01:51:21;16.38;;;10.30;;
78716;SDS011;68045;50.042;14.432;2023-06-10T01:55:22;15.88;;;9.57;;
78716;SDS011;68045;50.042;14.432;2023-06-10T01:59:23;14.88;;;9.60;;
78716;SDS011;68045;50.042;14.432;2023-06-10T02:03:24;14.82;;;8.98;;
78716;SDS011;68045;50.042;14.432;2023-06-10T02:07:24;13.07;;;8.70;;
78716;SDS011;68045;50.042;14.432;2023-06-10T02:11:25;13.43;;;8.95;;
78716;SDS011;68045;50.042;14.432;2023-06-10T02:15:27;17.67;;;10.75;;
78716;SDS011;68045;50.042;14.432;2023-06-10T02:19:28;20.92;;;9.88;;
78716;SDS011;68045;50.042;14.432;2023-06-10T02:23:29;27.88;;;9.20;;
78716;SDS011;68045;50.042;14.432;2023-06-10T02:27:30;20.15;;;10.23;;
78716;SDS011;68045;50.042;14.432;2023-06-10T02:31:31;40.88;;;8.95;;
78716;SDS011;68045;50.042;14.432;2023-06-10T02:35:41;12.93;;;9.15;;
78716;SDS011;68045;50.042;14.432;2023-06-10T02:39:42;17.33;;;8.40;;
78716;SDS011;68045;50.042;14.432;2023-06-10T02:43:45;10.70;;;7.03;;
78716;SDS011;68045;50.042;14.432;2023-06-10T02:47:46;16.02;;;7.90;;
78716;SDS011;68045;50.042;14.432;2023-06-10T02:51:49;13.27;;;7.72;;
78716;SDS011;68045;50.042;14.432;2023-06-10T02:55:54;11.52;;;8.30;;
78716;SDS011;68045;50.042;14.432;2023-06-10T02:59:55;16.27;;;7.80;;
78716;SDS011;68045;50.042;14.432;2023-06-10T03:03:57;13.50;;;7.80;;
78716;SDS011;68045;50.042;14.432;2023-06-10T03:07:58;11.10;;;7.90;;
78716;SDS011;68045;50.042;14.432;2023-06-10T03:11:59;16.90;;;7.85;;
78716;SDS011;68045;50.042;14.432;2023-06-10T03:16:04;8.90;;;6.40;;
78716;SDS011;68045;50.042;14.432;2023-06-10T03:20:08;11.82;;;5.88;;
78716;SDS011;68045;50.042;14.432;2023-06-10T03:24:11;7.85;;;5.68;;
78716;SDS011;68045;50.042;14.432;2023-06-10T03:28:12;9.95;;;6.22;;
78716;SDS011;68045;50.042;14.432;2023-06-10T03:32:13;8.55;;;6.13;;
78716;SDS011;68045;50.042;14.432;2023-06-10T03:36:16;9.20;;;6.60;;
78716;SDS011;68045;50.042;14.432;2023-06-10T03:40:17;9.43;;;6.57;;
78716;SDS011;68045;50.042;14.432;2023-06-10T03:44:21;11.00;;;6.40;;
78716;SDS011;68045;50.042;14.432;2023-06-10T03:48:22;10.88;;;6.72;;
78716;SDS011;68045;50.042;14.432;2023-06-10T03:52:26;10.25;;;5.45;;
78716;SDS011;68045;50.042;14.432;2023-06-10T03:56:27;15.35;;;6.50;;
78716;SDS011;68045;50.042;14.432;2023-06-10T04:00:29;7.72;;;5.20;;
78716;SDS011;68045;50.042;14.432;2023-06-10T04:04:30;12.25;;;6.22;;
78716;SDS011;68045;50.042;14.432;2023-06-10T04:08:32;9.15;;;6.53;;
78716;SDS011;68045;50.042;14.432;2023-06-10T04:12:34;9.63;;;6.95;;
78716;SDS011;68045;50.042;14.432;2023-06-10T04:16:36;12.93;;;5.85;;
78716;SDS011;68045;50.042;14.432;2023-06-10T04:20:37;8.60;;;6.63;;
78716;SDS011;68045;50.042;14.432;2023-06-10T04:24:38;9.32;;;6.85;;
78716;SDS011;68045;50.042;14.432;2023-06-10T04:28:40;11.15;;;7.13;;
78716;SDS011;68045;50.042;14.432;2023-06-10T04:32:41;11.85;;;6.97;;
78716;SDS011;68045;50.042;14.432;2023-06-10T04:36:47;14.93;;;6.15;;
78716;SDS011;68045;50.042;14.432;2023-06-10T04:40:48;9.30;;;6.97;;
78716;SDS011;68045;50.042;14.432;2023-06-10T04:44:50;7.93;;;5.97;;
78716;SDS011;68045;50.042;14.432;2023-06-10T04:48:51;9.60;;;6.55;;
78716;SDS011;68045;50.042;14.432;2023-06-10T04:56:58;8.38;;;5.88;;
78716;SDS011;68045;50.042;14.432;2023-06-10T05:01:00;8.77;;;6.30;;
78716;SDS011;68045;50.042;14.432;2023-06-10T05:05:02;10.70;;;7.32;;
78716;SDS011;68045;50.042;14.432;2023-06-10T05:09:03;9.18;;;6.70;;
78716;SDS011;68045;50.042;14.432;2023-06-10T05:13:04;12.63;;;7.70;;
78716;SDS011;68045;50.042;14.432;2023-06-10T05:17:05;12.48;;;7.85;;
78716;SDS011;68045;50.042;14.432;2023-06-10T05:21:10;10.23;;;7.82;;
78716;SDS011;68045;50.042;14.432;2023-06-10T05:25:12;14.48;;;8.63;;
78716;SDS011;68045;50.042;14.432;2023-06-10T05:29:13;12.52;;;8.48;;
78716;SDS011;68045;50.042;14.432;2023-06-10T05:33:13;15.32;;;10.10;;
78716;SDS011;68045;50.042;14.432;2023-06-10T05:37:14;11.13;;;8.10;;
78716;SDS011;68045;50.042;14.432;2023-06-10T05:41:15;11.30;;;7.85;;
78716;SDS011;68045;50.042;14.432;2023-06-10T05:45:16;10.40;;;8.32;;
78716;SDS011;68045;50.042;14.432;2023-06-10T05:49:17;15.02;;;7.82;;
78716;SDS011;68045;50.042;14.432;2023-06-10T05:53:18;10.77;;;8.02;;
78716;SDS011;68045;50.042;14.432;2023-06-10T05:57:19;13.52;;;8.05;;
78716;SDS011;68045;50.042;14.432;2023-06-10T06:01:20;11.65;;;8.27;;
78716;SDS011;68045;50.042;14.432;2023-06-10T06:05:21;11.00;;;8.02;;
78716;SDS011;68045;50.042;14.432;2023-06-10T06:09:21;15.32;;;7.97;;
78716;SDS011;68045;50.042;14.432;2023-06-10T06:13:22;8.80;;;6.82;;
78716;SDS011;68045;50.042;14.432;2023-06-10T06:17:23;9.68;;;6.22;;
78716;SDS011;68045;50.042;14.432;2023-06-10T06:21:24;9.50;;;6.38;;
78716;SDS011;68045;50.042;14.432;2023-06-10T06:25:25;9.63;;;6.00;;
78716;SDS011;68045;50.042;14.432;2023-06-10T06:29:26;8.55;;;6.18;;
78716;SDS011;68045;50.042;14.432;2023-06-10T06:33:27;8.23;;;5.88;;
78716;SDS011;68045;50.042;14.432;2023-06-10T06:37:28;10.60;;;6.35;;
78716;SDS011;68045;50.042;14.432;2023-06-10T06:41:43;9.75;;;6.53;;
78716;SDS011;68045;50.042;14.432;2023-06-10T06:45:44;8.57;;;6.10;;
78716;SDS011;68045;50.042;14.432;2023-06-10T06:49:46;7.60;;;5.90;;
78716;SDS011;68045;50.042;14.432;2023-06-10T06:53:47;7.30;;;5.20;;
78716;SDS011;68045;50.042;14.432;2023-06-10T06:57:50;6.38;;;5.07;;
78716;SDS011;68045;50.042;14.432;2023-06-10T07:01:51;11.57;;;5.85;;
78716;SDS011;68045;50.042;14.432;2023-06-10T07:05:54;6.80;;;5.53;;
78716;SDS011;68045;50.042;14.432;2023-06-10T07:09:55;9.10;;;5.60;;
78716;SDS011;68045;50.042;14.432;2023-06-10T07:13:56;7.30;;;6.18;;
78716;SDS011;68045;50.042;14.432;2023-06-10T07:17:57;7.78;;;5.30;;
78716;SDS011;68045;50.042;14.432;2023-06-10T07:21:58;7.90;;;5.82;;
78716;SDS011;68045;50.042;14.432;2023-06-10T07:25:59;8.20;;;5.65;;
78716;SDS011;68045;50.042;14.432;2023-06-10T07:30:00;7.97;;;5.60;;
78716;SDS011;68045;50.042;14.432;2023-06-10T07:38:02;9.13;;;6.53;;
78716;SDS011;68045;50.042;14.432;2023-06-10T07:42:04;8.50;;;6.45;;
78716;SDS011;68045;50.042;14.432;2023-06-10T07:46:05;8.60;;;6.45;;
78716;SDS011;68045;50.042;14.432;2023-06-10T07:50:06;9.32;;;6.22;;
78716;SDS011;68045;50.042;14.432;2023-06-10T07:54:07;9.30;;;7.20;;
78716;SDS011;68045;50.042;14.432;2023-06-10T07:58:08;10.75;;;8.52;;
78716;SDS011;68045;50.042;14.432;2023-06-10T08:02:09;10.75;;;8.30;;
78716;SDS011;68045;50.042;14.432;2023-06-10T08:06:10;9.43;;;7.50;;
78716;SDS011;68045;50.042;14.432;2023-06-10T08:10:12;10.25;;;7.20;;
78716;SDS011;68045;50.042;14.432;2023-06-10T08:14:13;10.63;;;7.07;;
78716;SDS011;68045;50.042;14.432;2023-06-10T08:18:14;9.63;;;7.60;;
78716;SDS011;68045;50.042;14.432;2023-06-10T08:22:15;10.57;;;7.72;;
78716;SDS011;68045;50.042;14.432;2023-06-10T08:26:16;9.82;;;7.53;;
78716;SDS011;68045;50.042;14.432;2023-06-10T08:30:17;12.70;;;7.25;;
78716;SDS011;68045;50.042;14.432;2023-06-10T08:34:18;16.35;;;7.03;;
78716;SDS011;68045;50.042;14.432;2023-06-10T08:38:19;10.75;;;7.53;;
78716;SDS011;68045;50.042;14.432;2023-06-10T08:42:28;9.48;;;7.15;;
78716;SDS011;68045;50.042;14.432;2023-06-10T08:46:37;11.38;;;7.72;;
78716;SDS011;68045;50.042;14.432;2023-06-10T08:50:40;11.57;;;7.82;;
78716;SDS011;68045;50.042;14.432;2023-06-10T08:54:43;11.23;;;7.80;;
78716;SDS011;68045;50.042;14.432;2023-06-10T08:58:49;10.80;;;8.02;;
78716;SDS011;68045;50.042;14.432;2023-06-10T09:02:50;12.65;;;8.48;;
78716;SDS011;68045;50.042;14.432;2023-06-10T09:06:52;11.00;;;8.98;;
78716;SDS011;68045;50.042;14.432;2023-06-10T09:10:54;11.75;;;8.85;;
78716;SDS011;68045;50.042;14.432;2023-06-10T09:14:55;13.77;;;8.90;;
78716;SDS011;68045;50.042;14.432;2023-06-10T09:18:57;14.23;;;8.52;;
78716;SDS011;68045;50.042;14.432;2023-06-10T09:22:59;13.27;;;9.27;;
78716;SDS011;68045;50.042;14.432;2023-06-10T09:27:07;11.95;;;9.57;;
78716;SDS011;68045;50.042;14.432;2023-06-10T09:31:09;16.77;;;8.40;;
78716;SDS011;68045;50.042;14.432;2023-06-10T09:35:10;13.40;;;9.57;;
78716;SDS011;68045;50.042;14.432;2023-06-10T09:39:15;10.18;;;8.30;;
78716;SDS011;68045;50.042;14.432;2023-06-10T09:43:17;11.60;;;8.75;;
78716;SDS011;68045;50.042;14.432;2023-06-10T09:47:22;12.90;;;8.95;;
78716;SDS011;68045;50.042;14.432;2023-06-10T09:51:23;12.77;;;9.32;;
78716;SDS011;68045;50.042;14.432;2023-06-10T09:55:24;12.45;;;10.10;;
78716;SDS011;68045;50.042;14.432;2023-06-10T09:59:29;12.48;;;10.02;;
78716;SDS011;68045;50.042;14.432;2023-06-10T10:03:32;14.40;;;9.57;;
78716;SDS011;68045;50.042;14.432;2023-06-10T10:07:33;13.95;;;8.77;;
78716;SDS011;68045;50.042;14.432;2023-06-10T10:11:34;10.73;;;8.93;;
78716;SDS011;68045;50.042;14.432;2023-06-10T10:15:36;14.68;;;9.80;;
78716;SDS011;68045;50.042;14.432;2023-06-10T10:19:48;11.15;;;8.55;;
78716;SDS011;68045;50.042;14.432;2023-06-10T10:23:58;15.68;;;9.57;;
78716;SDS011;68045;50.042;14.432;2023-06-10T10:32:08;12.93;;;8.55;;
78716;SDS011;68045;50.042;14.432;2023-06-10T10:36:12;10.65;;;8.65;;
78716;SDS011;68045;50.042;14.432;2023-06-10T10:40:14;10.02;;;8.30;;
78716;SDS011;68045;50.042;14.432;2023-06-10T10:44:16;11.77;;;8.43;;
78716;SDS011;68045;50.042;14.432;2023-06-10T10:48:18;10.60;;;8.48;;
78716;SDS011;68045;50.042;14.432;2023-06-10T10:52:19;11.35;;;8.18;;
78716;SDS011;68045;50.042;14.432;2023-06-10T10:56:20;11.55;;;8.27;;
78716;SDS011;68045;50.042;14.432;2023-06-10T11:00:26;12.70;;;8.23;;
78716;SDS011;68045;50.042;14.432;2023-06-10T11:04:33;12.32;;;8.15;;
78716;SDS011;68045;50.042;14.432;2023-06-10T11:16:45;9.15;;;7.22;;
78716;SDS011;68045;50.042;14.432;2023-06-10T11:24:51;10.00;;;8.02;;
78716;SDS011;68045;50.042;14.432;2023-06-10T11:32:53;12.85;;;8.35;;
78716;SDS011;68045;50.042;14.432;2023-06-10T11:36:55;13.13;;;8.57;;
78716;SDS011;68045;50.042;14.432;2023-06-10T11:40:57;12.57;;;8.32;;
78716;SDS011;68045;50.042;14.432;2023-06-10T11:44:58;10.65;;;7.75;;
78716;SDS011;68045;50.042;14.432;2023-06-10T11:48:59;10.68;;;8.73;;
78716;SDS011;68045;50.042;14.432;2023-06-10T11:53:00;11.82;;;8.20;;
78716;SDS011;68045;50.042;14.432;2023-06-10T11:57:02;14.02;;;8.23;;
78716;SDS011;68045;50.042;14.432;2023-06-10T12:01:04;15.98;;;9.30;;
78716;SDS011;68045;50.042;14.432;2023-06-10T12:05:11;13.43;;;9.45;;
78716;SDS011;68045;50.042;14.432;2023-06-10T12:09:14;11.07;;;8.25;;
78716;SDS011;68045;50.042;14.432;2023-06-10T12:13:18;12.32;;;8.43;;
78716;SDS011;68045;50.042;14.432;2023-06-10T12:17:37;15.00;;;8.35;;
78716;SDS011;68045;50.042;14.432;2023-06-10T12:21:38;10.32;;;9.20;;
78716;SDS011;68045;50.042;14.432;2023-06-10T12:25:39;11.95;;;8.98;;
78716;SDS011;68045;50.042;14.432;2023-06-10T12:29:51;9.40;;;6.95;;
78716;SDS011;68045;50.042;14.432;2023-06-10T12:34:16;12.25;;;7.90;;
78716;SDS011;68045;50.042;14.432;2023-06-10T12:38:22;10.55;;;7.53;;
78716;SDS011;68045;50.042;14.432;2023-06-10T12:42:30;8.65;;;7.45;;
78716;SDS011;68045;50.042;14.432;2023-06-10T12:46:36;10.63;;;8.40;;
78716;SDS011;68045;50.042;14.432;2023-06-10T12:50:40;11.70;;;7.70;;
78716;SDS011;68045;50.042;14.432;2023-06-10T12:54:42;13.00;;;8.07;;
78716;SDS011;68045;50.042;14.432;2023-06-10T12:58:43;12.20;;;7.47;;
78716;SDS011;68045;50.042;14.432;2023-06-10T13:02:44;11.25;;;7.40;;
78716;SDS011;68045;50.042;14.432;2023-06-10T13:06:45;14.43;;;8.23;;
78716;SDS011;68045;50.042;14.432;2023-06-10T13:10:47;11.57;;;7.20;;
78716;SDS011;68045;50.042;14.432;2023-06-10T13:14:49;11.02;;;7.38;;
78716;SDS011;68045;50.042;14.432;2023-06-10T13:18:50;8.75;;;7.03;;
78716;SDS011;68045;50.042;14.432;2023-06-10T13:22:51;9.57;;;6.85;;
78716;SDS011;68045;50.042;14.432;2023-06-10T13:26:52;8.57;;;7.07;;
78716;SDS011;68045;50.042;14.432;2023-06-10T13:30:53;10.30;;;6.78;;
78716;SDS011;68045;50.042;14.432;2023-06-10T13:34:54;11.20;;;6.97;;
78716;SDS011;68045;50.042;14.432;2023-06-10T13:38:55;8.60;;;6.88;;
78716;SDS011;68045;50.042;14.432;2023-06-10T13:42:56;11.15;;;7.78;;
78716;SDS011;68045;50.042;14.432;2023-06-10T13:46:57;9.75;;;6.95;;
78716;SDS011;68045;50.042;14.432;2023-06-10T13:50:58;10.90;;;7.00;;
78716;SDS011;68045;50.042;14.432;2023-06-10T13:59:01;11.48;;;6.85;;
78716;SDS011;68045;50.042;14.432;2023-06-10T14:03:02;11.35;;;7.03;;
78716;SDS011;68045;50.042;14.432;2023-06-10T14:07:04;9.73;;;7.47;;
78716;SDS011;68045;50.042;14.432;2023-06-10T14:11:05;9.00;;;6.40;;
78716;SDS011;68045;50.042;14.432;2023-06-10T14:15:06;10.18;;;8.25;;
78716;SDS011;68045;50.042;14.432;2023-06-10T14:19:08;9.55;;;6.68;;
78716;SDS011;68045;50.042;14.432;2023-06-10T14:23:08;10.00;;;6.97;;
78716;SDS011;68045;50.042;14.432;2023-06-10T14:27:09;10.15;;;6.50;;
78716;SDS011;68045;50.042;14.432;2023-06-10T14:31:10;8.98;;;7.30;;
78716;SDS011;68045;50.042;14.432;2023-06-10T14:35:11;11.23;;;7.80;;
78716;SDS011;68045;50.042;14.432;2023-06-10T14:39:12;8.52;;;7.00;;
78716;SDS011;68045;50.042;14.432;2023-06-10T14:43:13;10.25;;;7.50;;
78716;SDS011;68045;50.042;14.432;2023-06-10T14:47:14;12.18;;;7.15;;
78716;SDS011;68045;50.042;14.432;2023-06-10T14:51:15;11.82;;;6.70;;
78716;SDS011;68045;50.042;14.432;2023-06-10T14:55:16;8.98;;;7.22;;
78716;SDS011;68045;50.042;14.432;2023-06-10T14:59:17;8.40;;;6.25;;
78716;SDS011;68045;50.042;14.432;2023-06-10T15:03:18;9.65;;;6.18;;
78716;SDS011;68045;50.042;14.432;2023-06-10T15:07:19;10.57;;;6.50;;
78716;SDS011;68045;50.042;14.432;2023-06-10T15:11:20;9.18;;;6.70;;
78716;SDS011;68045;50.042;14.432;2023-06-10T15:15:22;8.63;;;5.80;;
78716;SDS011;68045;50.042;14.432;2023-06-10T15:19:23;9.82;;;6.25;;
78716;SDS011;68045;50.042;14.432;2023-06-10T15:23:25;9.18;;;6.85;;
78716;SDS011;68045;50.042;14.432;2023-06-10T15:27:26;7.70;;;6.47;;
78716;SDS011;68045;50.042;14.432;2023-06-10T15:31:27;10.98;;;6.95;;
78716;SDS011;68045;50.042;14.432;2023-06-10T15:35:27;9.63;;;6.28;;
78716;SDS011;68045;50.042;14.432;2023-06-10T15:39:28;7.75;;;6.22;;
78716;SDS011;68045;50.042;14.432;2023-06-10T15:43:31;10.18;;;7.38;;
78716;SDS011;68045;50.042;14.432;2023-06-10T15:47:32;12.60;;;7.25;;
78716;SDS011;68045;50.042;14.432;2023-06-10T15:51:33;10.30;;;6.78;;
78716;SDS011;68045;50.042;14.432;2023-06-10T15:55:34;9.20;;;6.68;;
78716;SDS011;68045;50.042;14.432;2023-06-10T15:59:35;9.23;;;6.13;;
78716;SDS011;68045;50.042;14.432;2023-06-10T16:03:36;12.77;;;7.05;;
78716;SDS011;68045;50.042;14.432;2023-06-10T16:07:37;7.70;;;6.45;;
78716;SDS011;68045;50.042;14.432;2023-06-10T16:11:39;8.75;;;7.20;;
78716;SDS011;68045;50.042;14.432;2023-06-10T16:15:39;12.73;;;6.90;;
78716;SDS011;68045;50.042;14.432;2023-06-10T16:19:40;10.00;;;7.15;;
78716;SDS011;68045;50.042;14.432;2023-06-10T16:23:41;10.32;;;6.93;;
78716;SDS011;68045;50.042;14.432;2023-06-10T16:27:42;14.38;;;7.68;;
78716;SDS011;68045;50.042;14.432;2023-06-10T16:31:43;9.30;;;7.40;;
78716;SDS011;68045;50.042;14.432;2023-06-10T16:35:44;10.13;;;6.85;;
78716;SDS011;68045;50.042;14.432;2023-06-10T16:39:45;9.77;;;7.13;;
78716;SDS011;68045;50.042;14.432;2023-06-10T16:43:45;12.05;;;8.18;;
78716;SDS011;68045;50.042;14.432;2023-06-10T16:47:46;11.50;;;7.22;;
78716;SDS011;68045;50.042;14.432;2023-06-10T16:51:48;9.15;;;6.90;;
78716;SDS011;68045;50.042;14.432;2023-06-10T16:55:48;11.43;;;7.25;;
78716;SDS011;68045;50.042;14.432;2023-06-10T16:59:50;8.07;;;7.00;;
78716;SDS011;68045;50.042;14.432;2023-06-10T17:03:51;9.88;;;7.60;;
78716;SDS011;68045;50.042;14.432;2023-06-10T17:07:52;11.63;;;8.55;;
78716;SDS011;68045;50.042;14.432;2023-06-10T17:11:53;20.25;;;8.65;;
78716;SDS011;68045;50.042;14.432;2023-06-10T17:15:53;10.50;;;8.45;;
78716;SDS011;68045;50.042;14.432;2023-06-10T17:19:56;14.38;;;9.43;;
78716;SDS011;68045;50.042;14.432;2023-06-10T17:23:57;10.63;;;8.38;;
78716;SDS011;68045;50.042;14.432;2023-06-10T17:27:58;13.48;;;8.10;;
78716;SDS011;68045;50.042;14.432;2023-06-10T17:31:59;10.15;;;8.02;;
78716;SDS011;68045;50.042;14.432;2023-06-10T17:36:01;9.88;;;7.75;;
78716;SDS011;68045;50.042;14.432;2023-06-10T17:40:02;11.88;;;8.00;;
78716;SDS011;68045;50.042;14.432;2023-06-10T17:44:03;11.15;;;8.63;;
78716;SDS011;68045;50.042;14.432;2023-06-10T17:48:05;11.38;;;7.70;;
78716;SDS011;68045;50.042;14.432;2023-06-10T17:52:06;10.25;;;7.65;;
78716;SDS011;68045;50.042;14.432;2023-06-10T17:56:07;14.23;;;8.38;;
78716;SDS011;68045;50.042;14.432;2023-06-10T18:00:08;9.70;;;8.38;;
78716;SDS011;68045;50.042;14.432;2023-06-10T18:04:10;10.13;;;7.80;;
78716;SDS011;68045;50.042;14.432;2023-06-10T18:08:10;12.18;;;8.57;;
78716;SDS011;68045;50.042;14.432;2023-06-10T18:12:12;11.02;;;8.27;;
78716;SDS011;68045;50.042;14.432;2023-06-10T18:16:13;12.23;;;8.25;;
78716;SDS011;68045;50.042;14.432;2023-06-10T18:24:15;9.63;;;7.40;;
78716;SDS011;68045;50.042;14.432;2023-06-10T18:28:16;10.32;;;7.78;;
78716;SDS011;68045;50.042;14.432;2023-06-10T18:32:17;12.63;;;8.13;;
78716;SDS011;68045;50.042;14.432;2023-06-10T18:36:18;11.93;;;8.15;;
78716;SDS011;68045;50.042;14.432;2023-06-10T18:40:18;12.35;;;7.85;;
78716;SDS011;68045;50.042;14.432;2023-06-10T18:44:19;11.82;;;8.57;;
78716;SDS011;68045;50.042;14.432;2023-06-10T18:48:20;12.65;;;8.15;;
78716;SDS011;68045;50.042;14.432;2023-06-10T18:52:23;13.15;;;8.65;;
78716;SDS011;68045;50.042;14.432;2023-06-10T18:56:24;10.02;;;8.15;;
78716;SDS011;68045;50.042;14.432;2023-06-10T19:00:25;10.80;;;8.82;;
78716;SDS011;68045;50.042;14.432;2023-06-10T19:04:26;13.30;;;9.90;;
78716;SDS011;68045;50.042;14.432;2023-06-10T19:08:27;19.83;;;9.77;;
78716;SDS011;68045;50.042;14.432;2023-06-10T19:12:28;18.65;;;8.88;;
78716;SDS011;68045;50.042;14.432;2023-06-10T19:16:29;11.00;;;8.60;;
78716;SDS011;68045;50.042;14.432;2023-06-10T19:20:30;15.02;;;8.75;;
78716;SDS011;68045;50.042;14.432;2023-06-10T19:24:31;13.55;;;8.93;;
78716;SDS011;68045;50.042;14.432;2023-06-10T19:28:32;13.10;;;8.93;;
78716;SDS011;68045;50.042;14.432;2023-06-10T19:32:33;15.43;;;8.98;;
78716;SDS011;68045;50.042;14.432;2023-06-10T19:36:34;13.13;;;9.30;;
78716;SDS011;68045;50.042;14.432;2023-06-10T19:40:35;14.02;;;9.07;;
78716;SDS011;68045;50.042;14.432;2023-06-10T19:44:36;14.07;;;9.70;;
78716;SDS011;68045;50.042;14.432;2023-06-10T19:48:37;12.15;;;8.77;;
78716;SDS011;68045;50.042;14.432;2023-06-10T19:52:38;12.98;;;8.48;;
78716;SDS011;68045;50.042;14.432;2023-06-10T19:56:38;13.95;;;9.15;;
78716;SDS011;68045;50.042;14.432;2023-06-10T20:00:39;20.38;;;9.93;;
78716;SDS011;68045;50.042;14.432;2023-06-10T20:04:40;12.32;;;10.35;;
78716;SDS011;68045;50.042;14.432;2023-06-10T20:08:41;14.05;;;9.90;;
78716;SDS011;68045;50.042;14.432;2023-06-10T20:12:42;13.25;;;9.43;;
78716;SDS011;68045;50.042;14.432;2023-06-10T20:16:43;19.40;;;9.48;;
78716;SDS011;68045;50.042;14.432;2023-06-10T20:20:45;16.05;;;10.52;;
78716;SDS011;68045;50.042;14.432;2023-06-10T20:24:46;13.90;;;9.95;;
78716;SDS011;68045;50.042;14.432;2023-06-10T20:28:48;17.63;;;9.88;;
78716;SDS011;68045;50.042;14.432;2023-06-10T20:32:50;14.50;;;9.85;;
78716;SDS011;68045;50.042;14.432;2023-06-10T20:36:52;14.18;;;11.65;;
78716;SDS011;68045;50.042;14.432;2023-06-10T20:40:53;16.52;;;10.63;;
78716;SDS011;68045;50.042;14.432;2023-06-10T20:44:55;15.18;;;10.85;;
78716;SDS011;68045;50.042;14.432;2023-06-10T20:48:57;18.67;;;11.10;;
78716;SDS011;68045;50.042;14.432;2023-06-10T20:52:58;15.38;;;11.73;;
78716;SDS011;68045;50.042;14.432;2023-06-10T20:56:59;16.48;;;10.88;;
78716;SDS011;68045;50.042;14.432;2023-06-10T21:00:59;15.98;;;11.50;;
78716;SDS011;68045;50.042;14.432;2023-06-10T21:05:01;15.23;;;10.65;;
78716;SDS011;68045;50.042;14.432;2023-06-10T21:13:04;15.77;;;10.15;;
78716;SDS011;68045;50.042;14.432;2023-06-10T21:17:05;22.88;;;11.88;;
78716;SDS011;68045;50.042;14.432;2023-06-10T21:21:06;20.65;;;12.13;;
78716;SDS011;68045;50.042;14.432;2023-06-10T21:25:07;17.30;;;11.98;;
78716;SDS011;68045;50.042;14.432;2023-06-10T21:29:08;18.70;;;11.68;;
78716;SDS011;68045;50.042;14.432;2023-06-10T21:33:10;17.25;;;12.75;;
78716;SDS011;68045;50.042;14.432;2023-06-10T21:37:11;19.48;;;12.65;;
78716;SDS011;68045;50.042;14.432;2023-06-10T21:41:12;22.38;;;14.13;;
78716;SDS011;68045;50.042;14.432;2023-06-10T21:45:13;17.95;;;12.32;;
78716;SDS011;68045;50.042;14.432;2023-06-10T21:49:14;18.40;;;11.95;;
78716;SDS011;68045;50.042;14.432;2023-06-10T21:53:15;18.02;;;12.13;;
78716;SDS011;68045;50.042;14.432;2023-06-10T21:57:16;16.05;;;12.70;;
78716;SDS011;68045;50.042;14.432;2023-06-10T22:01:17;17.77;;;13.80;;
78716;SDS011;68045;50.042;14.432;2023-06-10T22:05:18;15.80;;;12.82;;
78716;SDS011;68045;50.042;14.432;2023-06-10T22:09:19;20.85;;;12.00;;
78716;SDS011;68045;50.042;14.432;2023-06-10T22:13:20;19.33;;;13.65;;
78716;SDS011;68045;50.042;14.432;2023-06-10T22:17:21;18.33;;;12.95;;
78716;SDS011;68045;50.042;14.432;2023-06-10T22:21:22;16.05;;;12.32;;
78716;SDS011;68045;50.042;14.432;2023-06-10T22:25:23;22.73;;;12.68;;
78716;SDS011;68045;50.042;14.432;2023-06-10T22:29:24;19.13;;;12.98;;
78716;SDS011;68045;50.042;14.432;2023-06-10T22:33:25;18.70;;;13.50;;
78716;SDS011;68045;50.042;14.432;2023-06-10T22:37:26;20.40;;;12.50;;
78716;SDS011;68045;50.042;14.432;2023-06-10T22:41:27;19.98;;;12.65;;
78716;SDS011;68045;50.042;14.432;2023-06-10T22:45:28;18.70;;;12.43;;
78716;SDS011;68045;50.042;14.432;2023-06-10T22:49:29;16.27;;;12.60;;
78716;SDS011;68045;50.042;14.432;2023-06-10T22:53:30;17.45;;;12.13;;
78716;SDS011;68045;50.042;14.432;2023-06-10T22:57:31;19.10;;;12.10;;
78716;SDS011;68045;50.042;14.432;2023-06-10T23:01:32;18.08;;;12.73;;
78716;SDS011;68045;50.042;14.432;2023-06-10T23:05:33;17.92;;;12.55;;
78716;SDS011;68045;50.042;14.432;2023-06-10T23:09:34;20.35;;;12.23;;
78716;SDS011;68045;50.042;14.432;2023-06-10T23:13:35;19.08;;;11.40;;
78716;SDS011;68045;50.042;14.432;2023-06-10T23:17:36;16.38;;;11.38;;
78716;SDS011;68045;50.042;14.432;2023-06-10T23:21:37;17.40;;;11.57;;
78716;SDS011;68045;50.042;14.432;2023-06-10T23:25:39;17.23;;;10.77;;
78716;SDS011;68045;50.042;14.432;2023-06-10T23:29:41;16.70;;;12.30;;
78716;SDS011;68045;50.042;14.432;2023-06-10T23:33:42;16.83;;;11.73;;
78716;SDS011;68045;50.042;14.432;2023-06-10T23:37:43;15.07;;;11.90;;
78716;SDS011;68045;50.042;14.432;2023-06-10T23:41:44;26.10;;;12.60;;
78716;SDS011;68045;50.042;14.432;2023-06-10T23:45:45;18.77;;;13.27;;
78716;SDS011;68045;50.042;14.432;2023-06-10T23:49:47;18.42;;;14.48;;
78716;SDS011;68045;50.042;14.432;2023-06-10T23:53:48;15.80;;;12.13;;
78716;SDS011;68045;50.042;14.432;2023-06-10T23:57:49;21.42;;;12.68;;
